sensor_id;sensor_type;location;lat;lon;timestamp;temperature;humidity
30381;DHT22;17169;50.966;11.038;2022-12-19T00:00:07;-3.20;99.90
30381;DHT22;17169;50.966;11.038;2022-12-19T00:03:09;-3.30;99.90
30381;DHT22;17169;50.966;11.038;2022-12-19T00:06:12;-3.30;99.90
30381;DHT22;17169;50.966;11.038;2022-12-19T00:09:15;-3.30;99.90
30381;DHT22;17169;50.966;11.038;2022-12-19T00:12:18;-3.30;99.90
30381;DHT22;17169;50.966;11.038;2022-12-19T00:15:20;-3.30;99.90
30381;DHT22;17169;50.966;11.038;2022-12-19T00:18:22;-3.40;99.90
30381;DHT22;17169;50.966;11.038;2022-12-19T00:21:27;-3.30;99.90
30381;DHT22;17169;50.966;11.038;2022-12-19T00:24:31;-3.20;99.90
30381;DHT22;17169;50.966;11.038;2022-12-19T00:27:33;-3.10;99.90
30381;DHT22;17169;50.966;11.038;2022-12-19T00:30:36;-3.00;99.90
30381;DHT22;17169;50.966;11.038;2022-12-19T00:33:38;-2.90;99.90
30381;DHT22;17169;50.966;11.038;2022-12-19T00:36:41;-2.80;99.90
30381;DHT22;17169;50.966;11.038;2022-12-19T00:39:45;-2.70;99.90
30381;DHT22;17169;50.966;11.038;2022-12-19T00:42:47;-2.60;99.90
30381;DHT22;17169;50.966;11.038;2022-12-19T00:45:49;-2.60;99.90
30381;DHT22;17169;50.966;11.038;2022-12-19T00:48:52;-2.50;99.90
30381;DHT22;17169;50.966;11.038;2022-12-19T00:51:54;-2.40;99.90
30381;DHT22;17169;50.966;11.038;2022-12-19T00:54:59;-2.30;99.90
30381;DHT22;17169;50.966;11.038;2022-12-19T00:58:01;-2.20;99.90
30381;DHT22;17169;50.966;11.038;2022-12-19T01:01:05;-2.20;99.90
30381;DHT22;17169;50.966;11.038;2022-12-19T01:04:11;-2.10;99.90
30381;DHT22;17169;50.966;11.038;2022-12-19T01:07:13;-2.00;99.90
30381;DHT22;17169;50.966;11.038;2022-12-19T01:10:17;-2.00;99.90
30381;DHT22;17169;50.966;11.038;2022-12-19T01:13:21;-1.90;99.90
30381;DHT22;17169;50.966;11.038;2022-12-19T01:16:23;-1.90;99.90
30381;DHT22;17169;50.966;11.038;2022-12-19T01:19:25;-1.90;99.90
30381;DHT22;17169;50.966;11.038;2022-12-19T01:22:28;-1.80;99.90
30381;DHT22;17169;50.966;11.038;2022-12-19T01:25:32;-1.70;99.90
30381;DHT22;17169;50.966;11.038;2022-12-19T01:28:35;-1.70;99.90
30381;DHT22;17169;50.966;11.038;2022-12-19T01:31:37;-1.60;99.90
30381;DHT22;17169;50.966;11.038;2022-12-19T01:34:39;-1.60;99.90
30381;DHT22;17169;50.966;11.038;2022-12-19T01:37:42;-1.50;99.90
30381;DHT22;17169;50.966;11.038;2022-12-19T01:40:53;-1.50;99.90
30381;DHT22;17169;50.966;11.038;2022-12-19T01:43:57;-1.50;99.90
30381;DHT22;17169;50.966;11.038;2022-12-19T01:47:00;-1.50;99.90
30381;DHT22;17169;50.966;11.038;2022-12-19T01:50:03;-1.50;99.90
30381;DHT22;17169;50.966;11.038;2022-12-19T01:53:07;-1.40;99.90
30381;DHT22;17169;50.966;11.038;2022-12-19T01:56:12;-1.40;99.90
30381;DHT22;17169;50.966;11.038;2022-12-19T01:59:19;-1.40;99.90
30381;DHT22;17169;50.966;11.038;2022-12-19T02:02:24;-1.40;99.90
30381;DHT22;17169;50.966;11.038;2022-12-19T02:05:29;-1.40;99.90
30381;DHT22;17169;50.966;11.038;2022-12-19T02:08:33;-1.30;99.90
30381;DHT22;17169;50.966;11.038;2022-12-19T02:11:38;-1.20;99.90
30381;DHT22;17169;50.966;11.038;2022-12-19T02:14:41;-1.20;99.90
30381;DHT22;17169;50.966;11.038;2022-12-19T02:17:54;-1.10;99.90
30381;DHT22;17169;50.966;11.038;2022-12-19T02:21:11;-1.00;99.90
30381;DHT22;17169;50.966;11.038;2022-12-19T02:24:39;-0.90;99.90
30381;DHT22;17169;50.966;11.038;2022-12-19T02:28:30;-0.80;99.90
30381;DHT22;17169;50.966;11.038;2022-12-19T02:31:35;-0.80;99.90
30381;DHT22;17169;50.966;11.038;2022-12-19T02:34:40;-0.70;99.90
30381;DHT22;17169;50.966;11.038;2022-12-19T02:37:48;-0.60;99.90
30381;DHT22;17169;50.966;11.038;2022-12-19T02:40:56;-0.50;99.90
30381;DHT22;17169;50.966;11.038;2022-12-19T02:44:00;-0.50;99.90
30381;DHT22;17169;50.966;11.038;2022-12-19T02:47:06;-0.40;99.90
30381;DHT22;17169;50.966;11.038;2022-12-19T02:50:08;-0.40;99.90
30381;DHT22;17169;50.966;11.038;2022-12-19T02:53:13;-0.30;99.90
30381;DHT22;17169;50.966;11.038;2022-12-19T02:56:27;-0.10;99.90
30381;DHT22;17169;50.966;11.038;2022-12-19T02:59:36;0.10;99.90
30381;DHT22;17169;50.966;11.038;2022-12-19T03:02:47;0.30;99.90
30381;DHT22;17169;50.966;11.038;2022-12-19T03:05:59;0.50;99.90
30381;DHT22;17169;50.966;11.038;2022-12-19T03:09:10;0.80;99.90
30381;DHT22;17169;50.966;11.038;2022-12-19T03:12:20;0.90;99.90
30381;DHT22;17169;50.966;11.038;2022-12-19T03:15:25;1.00;99.90
30381;DHT22;17169;50.966;11.038;2022-12-19T03:18:30;1.20;99.90
30381;DHT22;17169;50.966;11.038;2022-12-19T03:21:35;1.20;99.90
30381;DHT22;17169;50.966;11.038;2022-12-19T03:24:38;1.30;99.90
30381;DHT22;17169;50.966;11.038;2022-12-19T03:27:40;1.30;99.90
30381;DHT22;17169;50.966;11.038;2022-12-19T03:30:44;1.40;99.90
30381;DHT22;17169;50.966;11.038;2022-12-19T03:33:49;1.50;99.90
30381;DHT22;17169;50.966;11.038;2022-12-19T03:36:56;1.50;99.90
30381;DHT22;17169;50.966;11.038;2022-12-19T03:40:06;1.60;99.90
30381;DHT22;17169;50.966;11.038;2022-12-19T03:43:11;1.60;99.90
30381;DHT22;17169;50.966;11.038;2022-12-19T03:46:22;1.70;99.90
30381;DHT22;17169;50.966;11.038;2022-12-19T03:49:27;1.70;99.90
30381;DHT22;17169;50.966;11.038;2022-12-19T03:52:34;1.70;99.90
30381;DHT22;17169;50.966;11.038;2022-12-19T03:55:43;1.70;99.90
30381;DHT22;17169;50.966;11.038;2022-12-19T03:58:51;1.80;99.90
30381;DHT22;17169;50.966;11.038;2022-12-19T04:01:56;1.90;99.90
30381;DHT22;17169;50.966;11.038;2022-12-19T04:05:03;1.90;99.90
30381;DHT22;17169;50.966;11.038;2022-12-19T04:08:07;2.00;99.90
30381;DHT22;17169;50.966;11.038;2022-12-19T04:11:15;2.00;99.90
30381;DHT22;17169;50.966;11.038;2022-12-19T04:14:24;2.10;99.90
30381;DHT22;17169;50.966;11.038;2022-12-19T04:17:33;2.10;99.90
30381;DHT22;17169;50.966;11.038;2022-12-19T04:20:43;2.20;99.90
30381;DHT22;17169;50.966;11.038;2022-12-19T04:23:49;2.20;99.90
30381;DHT22;17169;50.966;11.038;2022-12-19T04:26:54;2.20;99.90
30381;DHT22;17169;50.966;11.038;2022-12-19T04:29:58;2.20;99.90
30381;DHT22;17169;50.966;11.038;2022-12-19T04:33:02;2.10;99.90
30381;DHT22;17169;50.966;11.038;2022-12-19T04:36:06;2.10;99.90
30381;DHT22;17169;50.966;11.038;2022-12-19T04:39:09;2.10;99.90
30381;DHT22;17169;50.966;11.038;2022-12-19T04:42:11;2.10;99.90
30381;DHT22;17169;50.966;11.038;2022-12-19T04:45:16;2.10;99.90
30381;DHT22;17169;50.966;11.038;2022-12-19T04:48:19;2.10;99.90
30381;DHT22;17169;50.966;11.038;2022-12-19T04:51:22;2.10;99.90
30381;DHT22;17169;50.966;11.038;2022-12-19T04:54:25;2.10;99.90
30381;DHT22;17169;50.966;11.038;2022-12-19T04:57:28;2.10;99.90
30381;DHT22;17169;50.966;11.038;2022-12-19T05:00:31;2.00;99.90
30381;DHT22;17169;50.966;11.038;2022-12-19T05:03:34;2.00;99.90
30381;DHT22;17169;50.966;11.038;2022-12-19T05:06:38;2.00;99.90
30381;DHT22;17169;50.966;11.038;2022-12-19T05:09:40;2.00;99.90
30381;DHT22;17169;50.966;11.038;2022-12-19T05:12:43;2.00;99.90
30381;DHT22;17169;50.966;11.038;2022-12-19T05:15:54;1.90;99.90
30381;DHT22;17169;50.966;11.038;2022-12-19T05:18:58;2.00;99.90
30381;DHT22;17169;50.966;11.038;2022-12-19T05:22:02;2.00;99.90
30381;DHT22;17169;50.966;11.038;2022-12-19T05:25:05;2.00;99.90
30381;DHT22;17169;50.966;11.038;2022-12-19T05:28:08;2.00;99.90
30381;DHT22;17169;50.966;11.038;2022-12-19T05:31:12;2.00;99.90
30381;DHT22;17169;50.966;11.038;2022-12-19T05:34:15;2.00;99.90
30381;DHT22;17169;50.966;11.038;2022-12-19T05:37:19;2.00;99.90
30381;DHT22;17169;50.966;11.038;2022-12-19T05:40:21;2.00;99.90
30381;DHT22;17169;50.966;11.038;2022-12-19T05:43:23;2.10;99.90
30381;DHT22;17169;50.966;11.038;2022-12-19T05:46:26;2.00;99.90
30381;DHT22;17169;50.966;11.038;2022-12-19T05:49:28;2.00;99.90
30381;DHT22;17169;50.966;11.038;2022-12-19T05:52:32;2.00;99.90
30381;DHT22;17169;50.966;11.038;2022-12-19T05:55:34;2.00;99.90
30381;DHT22;17169;50.966;11.038;2022-12-19T05:58:37;2.00;99.90
30381;DHT22;17169;50.966;11.038;2022-12-19T06:01:41;2.00;99.90
30381;DHT22;17169;50.966;11.038;2022-12-19T06:04:43;2.00;99.90
30381;DHT22;17169;50.966;11.038;2022-12-19T06:07:47;2.00;99.90
30381;DHT22;17169;50.966;11.038;2022-12-19T06:10:49;2.00;99.90
30381;DHT22;17169;50.966;11.038;2022-12-19T06:13:52;2.00;99.90
30381;DHT22;17169;50.966;11.038;2022-12-19T06:16:54;2.00;99.90
30381;DHT22;17169;50.966;11.038;2022-12-19T06:19:56;2.10;99.90
30381;DHT22;17169;50.966;11.038;2022-12-19T06:23:00;2.10;99.90
30381;DHT22;17169;50.966;11.038;2022-12-19T06:26:04;2.10;99.90
30381;DHT22;17169;50.966;11.038;2022-12-19T06:29:07;2.10;99.90
30381;DHT22;17169;50.966;11.038;2022-12-19T06:32:10;2.10;99.90
30381;DHT22;17169;50.966;11.038;2022-12-19T06:35:12;2.20;99.90
30381;DHT22;17169;50.966;11.038;2022-12-19T06:38:16;2.20;99.90
30381;DHT22;17169;50.966;11.038;2022-12-19T06:41:18;2.20;99.90
30381;DHT22;17169;50.966;11.038;2022-12-19T06:44:38;2.30;99.90
30381;DHT22;17169;50.966;11.038;2022-12-19T06:47:41;2.30;99.90
30381;DHT22;17169;50.966;11.038;2022-12-19T06:50:43;2.30;99.90
30381;DHT22;17169;50.966;11.038;2022-12-19T06:53:47;2.40;99.90
30381;DHT22;17169;50.966;11.038;2022-12-19T06:56:49;2.40;99.90
30381;DHT22;17169;50.966;11.038;2022-12-19T06:59:52;2.40;99.90
30381;DHT22;17169;50.966;11.038;2022-12-19T07:02:55;2.40;99.90
30381;DHT22;17169;50.966;11.038;2022-12-19T07:05:59;2.40;99.90
30381;DHT22;17169;50.966;11.038;2022-12-19T07:09:03;2.40;99.90
30381;DHT22;17169;50.966;11.038;2022-12-19T07:12:06;2.40;99.90
30381;DHT22;17169;50.966;11.038;2022-12-19T07:15:09;2.40;99.90
30381;DHT22;17169;50.966;11.038;2022-12-19T07:18:12;2.30;99.90
30381;DHT22;17169;50.966;11.038;2022-12-19T07:21:15;2.30;99.90
30381;DHT22;17169;50.966;11.038;2022-12-19T07:24:18;2.30;99.90
30381;DHT22;17169;50.966;11.038;2022-12-19T07:27:21;2.40;99.90
30381;DHT22;17169;50.966;11.038;2022-12-19T07:30:23;2.40;99.90
30381;DHT22;17169;50.966;11.038;2022-12-19T07:33:26;2.40;99.90
30381;DHT22;17169;50.966;11.038;2022-12-19T07:36:28;2.40;99.90
30381;DHT22;17169;50.966;11.038;2022-12-19T07:39:32;2.40;99.90
30381;DHT22;17169;50.966;11.038;2022-12-19T07:42:34;2.40;99.90
30381;DHT22;17169;50.966;11.038;2022-12-19T07:45:37;2.40;99.90
30381;DHT22;17169;50.966;11.038;2022-12-19T07:48:39;2.50;99.90
30381;DHT22;17169;50.966;11.038;2022-12-19T07:51:42;2.50;99.90
30381;DHT22;17169;50.966;11.038;2022-12-19T07:54:45;2.60;99.90
30381;DHT22;17169;50.966;11.038;2022-12-19T07:57:48;2.60;99.90
30381;DHT22;17169;50.966;11.038;2022-12-19T08:00:54;2.60;99.90
30381;DHT22;17169;50.966;11.038;2022-12-19T08:03:57;2.70;99.90
30381;DHT22;17169;50.966;11.038;2022-12-19T08:06:59;2.70;99.90
30381;DHT22;17169;50.966;11.038;2022-12-19T08:10:04;2.80;99.90
30381;DHT22;17169;50.966;11.038;2022-12-19T08:13:07;2.90;99.90
30381;DHT22;17169;50.966;11.038;2022-12-19T08:16:10;2.90;99.90
30381;DHT22;17169;50.966;11.038;2022-12-19T08:19:12;3.00;99.90
30381;DHT22;17169;50.966;11.038;2022-12-19T08:22:14;3.00;99.90
30381;DHT22;17169;50.966;11.038;2022-12-19T08:25:18;3.00;99.90
30381;DHT22;17169;50.966;11.038;2022-12-19T08:28:21;3.10;99.90
30381;DHT22;17169;50.966;11.038;2022-12-19T08:31:24;3.10;99.90
30381;DHT22;17169;50.966;11.038;2022-12-19T08:34:27;3.10;99.90
30381;DHT22;17169;50.966;11.038;2022-12-19T08:37:30;3.10;99.90
30381;DHT22;17169;50.966;11.038;2022-12-19T08:40:33;3.10;99.90
30381;DHT22;17169;50.966;11.038;2022-12-19T08:43:36;3.20;99.90
30381;DHT22;17169;50.966;11.038;2022-12-19T08:46:39;3.10;99.90
30381;DHT22;17169;50.966;11.038;2022-12-19T08:49:41;3.20;99.90
30381;DHT22;17169;50.966;11.038;2022-12-19T08:52:43;3.20;99.90
30381;DHT22;17169;50.966;11.038;2022-12-19T08:55:50;3.20;99.90
30381;DHT22;17169;50.966;11.038;2022-12-19T08:58:55;3.20;99.90
30381;DHT22;17169;50.966;11.038;2022-12-19T09:01:58;3.20;99.90
30381;DHT22;17169;50.966;11.038;2022-12-19T09:05:00;3.20;99.90
30381;DHT22;17169;50.966;11.038;2022-12-19T09:08:03;3.20;99.90
30381;DHT22;17169;50.966;11.038;2022-12-19T09:11:10;3.10;99.90
30381;DHT22;17169;50.966;11.038;2022-12-19T09:14:12;3.20;99.90
30381;DHT22;17169;50.966;11.038;2022-12-19T09:17:15;3.20;99.90
30381;DHT22;17169;50.966;11.038;2022-12-19T09:20:17;3.20;99.90
30381;DHT22;17169;50.966;11.038;2022-12-19T09:23:21;3.30;99.90
30381;DHT22;17169;50.966;11.038;2022-12-19T09:26:25;3.30;99.90
30381;DHT22;17169;50.966;11.038;2022-12-19T09:29:28;3.30;99.90
30381;DHT22;17169;50.966;11.038;2022-12-19T09:32:30;3.30;99.90
30381;DHT22;17169;50.966;11.038;2022-12-19T09:35:32;3.30;99.90
30381;DHT22;17169;50.966;11.038;2022-12-19T09:38:35;3.30;99.90
30381;DHT22;17169;50.966;11.038;2022-12-19T09:41:56;3.40;99.90
30381;DHT22;17169;50.966;11.038;2022-12-19T09:45:10;3.50;99.90
30381;DHT22;17169;50.966;11.038;2022-12-19T09:48:17;3.50;99.90
30381;DHT22;17169;50.966;11.038;2022-12-19T09:51:31;3.60;99.90
30381;DHT22;17169;50.966;11.038;2022-12-19T09:54:36;3.70;99.90
30381;DHT22;17169;50.966;11.038;2022-12-19T09:57:41;3.80;99.90
30381;DHT22;17169;50.966;11.038;2022-12-19T10:00:46;3.80;99.90
30381;DHT22;17169;50.966;11.038;2022-12-19T10:03:57;3.90;99.90
30381;DHT22;17169;50.966;11.038;2022-12-19T10:07:01;4.00;99.90
30381;DHT22;17169;50.966;11.038;2022-12-19T10:10:04;4.10;99.90
30381;DHT22;17169;50.966;11.038;2022-12-19T10:13:16;4.10;99.90
30381;DHT22;17169;50.966;11.038;2022-12-19T10:16:31;4.20;99.90
30381;DHT22;17169;50.966;11.038;2022-12-19T10:19:42;4.30;99.90
30381;DHT22;17169;50.966;11.038;2022-12-19T10:22:55;4.30;99.90
30381;DHT22;17169;50.966;11.038;2022-12-19T10:26:03;4.40;99.90
30381;DHT22;17169;50.966;11.038;2022-12-19T10:29:32;4.50;99.90
30381;DHT22;17169;50.966;11.038;2022-12-19T10:32:41;4.60;99.90
30381;DHT22;17169;50.966;11.038;2022-12-19T10:35:53;4.70;99.90
30381;DHT22;17169;50.966;11.038;2022-12-19T10:38:58;4.80;99.90
30381;DHT22;17169;50.966;11.038;2022-12-19T10:42:08;4.80;99.90
30381;DHT22;17169;50.966;11.038;2022-12-19T10:45:16;4.80;99.90
30381;DHT22;17169;50.966;11.038;2022-12-19T10:48:21;4.90;99.90
30381;DHT22;17169;50.966;11.038;2022-12-19T10:51:28;5.00;99.90
30381;DHT22;17169;50.966;11.038;2022-12-19T10:54:39;5.00;99.90
30381;DHT22;17169;50.966;11.038;2022-12-19T10:57:45;5.10;99.90
30381;DHT22;17169;50.966;11.038;2022-12-19T11:01:02;5.30;99.90
30381;DHT22;17169;50.966;11.038;2022-12-19T11:04:28;5.40;99.90
30381;DHT22;17169;50.966;11.038;2022-12-19T11:07:31;5.50;99.90
30381;DHT22;17169;50.966;11.038;2022-12-19T11:10:36;5.60;99.90
30381;DHT22;17169;50.966;11.038;2022-12-19T11:13:40;5.70;99.90
30381;DHT22;17169;50.966;11.038;2022-12-19T11:16:44;5.80;99.90
30381;DHT22;17169;50.966;11.038;2022-12-19T11:19:46;5.80;99.90
30381;DHT22;17169;50.966;11.038;2022-12-19T11:22:52;5.90;99.90
30381;DHT22;17169;50.966;11.038;2022-12-19T11:25:57;6.00;99.90
30381;DHT22;17169;50.966;11.038;2022-12-19T11:29:03;6.10;99.90
30381;DHT22;17169;50.966;11.038;2022-12-19T11:32:27;6.10;99.90
30381;DHT22;17169;50.966;11.038;2022-12-19T11:35:45;6.20;99.90
30381;DHT22;17169;50.966;11.038;2022-12-19T11:38:49;6.30;99.90
30381;DHT22;17169;50.966;11.038;2022-12-19T11:41:59;6.30;99.90
30381;DHT22;17169;50.966;11.038;2022-12-19T11:45:09;6.40;99.90
30381;DHT22;17169;50.966;11.038;2022-12-19T11:48:17;6.50;99.90
30381;DHT22;17169;50.966;11.038;2022-12-19T11:51:26;6.50;99.90
30381;DHT22;17169;50.966;11.038;2022-12-19T11:57:52;6.60;99.90
30381;DHT22;17169;50.966;11.038;2022-12-19T12:01:05;6.60;99.90
30381;DHT22;17169;50.966;11.038;2022-12-19T12:04:25;6.60;99.90
30381;DHT22;17169;50.966;11.038;2022-12-19T12:07:34;6.50;99.90
30381;DHT22;17169;50.966;11.038;2022-12-19T12:10:39;6.40;99.90
30381;DHT22;17169;50.966;11.038;2022-12-19T12:14:01;6.40;99.90
30381;DHT22;17169;50.966;11.038;2022-12-19T12:17:41;6.30;99.90
30381;DHT22;17169;50.966;11.038;2022-12-19T12:20:53;6.30;99.90
30381;DHT22;17169;50.966;11.038;2022-12-19T12:24:08;6.30;99.90
30381;DHT22;17169;50.966;11.038;2022-12-19T12:27:29;6.20;99.90
30381;DHT22;17169;50.966;11.038;2022-12-19T12:30:40;6.20;99.90
30381;DHT22;17169;50.966;11.038;2022-12-19T12:33:56;6.10;99.90
30381;DHT22;17169;50.966;11.038;2022-12-19T12:37:12;6.10;99.90
30381;DHT22;17169;50.966;11.038;2022-12-19T12:40:50;6.10;99.90
30381;DHT22;17169;50.966;11.038;2022-12-19T12:44:06;6.10;99.90
30381;DHT22;17169;50.966;11.038;2022-12-19T12:47:22;6.20;99.90
30381;DHT22;17169;50.966;11.038;2022-12-19T12:50:26;6.10;99.90
30381;DHT22;17169;50.966;11.038;2022-12-19T12:53:33;6.10;99.90
30381;DHT22;17169;50.966;11.038;2022-12-19T12:56:36;6.10;99.90
30381;DHT22;17169;50.966;11.038;2022-12-19T12:59:44;6.10;99.90
30381;DHT22;17169;50.966;11.038;2022-12-19T13:02:51;6.20;99.90
30381;DHT22;17169;50.966;11.038;2022-12-19T13:06:04;6.10;99.90
30381;DHT22;17169;50.966;11.038;2022-12-19T13:09:20;6.10;99.90
30381;DHT22;17169;50.966;11.038;2022-12-19T13:12:26;6.20;99.90
30381;DHT22;17169;50.966;11.038;2022-12-19T13:15:47;6.20;99.90
30381;DHT22;17169;50.966;11.038;2022-12-19T13:19:01;6.20;99.90
30381;DHT22;17169;50.966;11.038;2022-12-19T13:22:37;6.20;99.90
30381;DHT22;17169;50.966;11.038;2022-12-19T13:25:52;6.30;99.90
30381;DHT22;17169;50.966;11.038;2022-12-19T13:29:23;6.30;99.90
30381;DHT22;17169;50.966;11.038;2022-12-19T13:32:32;6.40;99.90
30381;DHT22;17169;50.966;11.038;2022-12-19T13:35:35;6.40;99.90
30381;DHT22;17169;50.966;11.038;2022-12-19T13:38:43;6.50;99.90
30381;DHT22;17169;50.966;11.038;2022-12-19T13:41:49;6.50;99.90
30381;DHT22;17169;50.966;11.038;2022-12-19T13:45:12;6.50;99.90
30381;DHT22;17169;50.966;11.038;2022-12-19T13:48:25;6.50;99.90
30381;DHT22;17169;50.966;11.038;2022-12-19T13:51:48;6.50;99.90
30381;DHT22;17169;50.966;11.038;2022-12-19T13:54:55;6.50;99.90
30381;DHT22;17169;50.966;11.038;2022-12-19T13:58:03;6.50;99.90
30381;DHT22;17169;50.966;11.038;2022-12-19T14:01:08;6.50;99.90
30381;DHT22;17169;50.966;11.038;2022-12-19T14:04:25;6.50;99.90
30381;DHT22;17169;50.966;11.038;2022-12-19T14:07:34;6.50;99.90
30381;DHT22;17169;50.966;11.038;2022-12-19T14:10:40;6.50;99.90
30381;DHT22;17169;50.966;11.038;2022-12-19T14:13:48;6.50;99.90
30381;DHT22;17169;50.966;11.038;2022-12-19T14:17:12;6.50;99.90
30381;DHT22;17169;50.966;11.038;2022-12-19T14:20:20;6.50;99.90
30381;DHT22;17169;50.966;11.038;2022-12-19T14:23:23;6.50;99.90
30381;DHT22;17169;50.966;11.038;2022-12-19T14:26:30;6.50;99.90
30381;DHT22;17169;50.966;11.038;2022-12-19T14:29:36;6.50;99.90
30381;DHT22;17169;50.966;11.038;2022-12-19T14:32:41;6.50;99.90
30381;DHT22;17169;50.966;11.038;2022-12-19T14:35:45;6.50;99.90
30381;DHT22;17169;50.966;11.038;2022-12-19T14:38:49;6.50;99.90
30381;DHT22;17169;50.966;11.038;2022-12-19T14:41:53;6.50;99.90
30381;DHT22;17169;50.966;11.038;2022-12-19T14:45:37;6.50;99.90
30381;DHT22;17169;50.966;11.038;2022-12-19T14:48:48;6.60;99.90
30381;DHT22;17169;50.966;11.038;2022-12-19T14:51:50;6.60;99.90
30381;DHT22;17169;50.966;11.038;2022-12-19T14:55:12;6.50;99.90
30381;DHT22;17169;50.966;11.038;2022-12-19T14:58:17;6.50;99.90
30381;DHT22;17169;50.966;11.038;2022-12-19T15:01:23;6.50;99.90
30381;DHT22;17169;50.966;11.038;2022-12-19T15:04:29;6.50;99.90
30381;DHT22;17169;50.966;11.038;2022-12-19T15:07:33;6.50;99.90
30381;DHT22;17169;50.966;11.038;2022-12-19T15:10:35;6.50;99.90
30381;DHT22;17169;50.966;11.038;2022-12-19T15:16:46;6.40;99.90
30381;DHT22;17169;50.966;11.038;2022-12-19T15:19:49;6.40;99.90
30381;DHT22;17169;50.966;11.038;2022-12-19T15:22:52;6.40;99.90
30381;DHT22;17169;50.966;11.038;2022-12-19T15:25:56;6.40;99.90
30381;DHT22;17169;50.966;11.038;2022-12-19T15:29:05;6.40;99.90
30381;DHT22;17169;50.966;11.038;2022-12-19T15:32:12;6.30;99.90
30381;DHT22;17169;50.966;11.038;2022-12-19T15:35:17;6.30;99.90
30381;DHT22;17169;50.966;11.038;2022-12-19T15:38:19;6.30;99.90
30381;DHT22;17169;50.966;11.038;2022-12-19T15:41:23;6.20;99.90
30381;DHT22;17169;50.966;11.038;2022-12-19T15:44:30;6.20;99.90
30381;DHT22;17169;50.966;11.038;2022-12-19T15:47:35;6.20;99.90
30381;DHT22;17169;50.966;11.038;2022-12-19T15:50:38;6.20;99.90
30381;DHT22;17169;50.966;11.038;2022-12-19T15:53:41;6.10;99.90
30381;DHT22;17169;50.966;11.038;2022-12-19T15:56:46;6.10;99.90
30381;DHT22;17169;50.966;11.038;2022-12-19T15:59:50;6.20;99.90
30381;DHT22;17169;50.966;11.038;2022-12-19T16:02:54;6.20;99.90
30381;DHT22;17169;50.966;11.038;2022-12-19T16:05:57;6.20;99.90
30381;DHT22;17169;50.966;11.038;2022-12-19T16:08:59;6.30;99.90
30381;DHT22;17169;50.966;11.038;2022-12-19T16:12:02;6.40;99.90
30381;DHT22;17169;50.966;11.038;2022-12-19T16:15:09;6.50;99.90
30381;DHT22;17169;50.966;11.038;2022-12-19T16:18:15;6.50;99.90
30381;DHT22;17169;50.966;11.038;2022-12-19T16:21:20;6.60;99.90
30381;DHT22;17169;50.966;11.038;2022-12-19T16:24:23;6.70;99.90
30381;DHT22;17169;50.966;11.038;2022-12-19T16:27:27;6.80;99.90
30381;DHT22;17169;50.966;11.038;2022-12-19T16:30:32;6.80;99.90
30381;DHT22;17169;50.966;11.038;2022-12-19T16:33:36;6.90;99.90
30381;DHT22;17169;50.966;11.038;2022-12-19T16:36:38;6.90;99.90
30381;DHT22;17169;50.966;11.038;2022-12-19T16:39:41;7.00;99.90
30381;DHT22;17169;50.966;11.038;2022-12-19T16:42:44;7.00;99.90
30381;DHT22;17169;50.966;11.038;2022-12-19T16:45:47;7.00;99.90
30381;DHT22;17169;50.966;11.038;2022-12-19T16:48:51;7.00;99.90
30381;DHT22;17169;50.966;11.038;2022-12-19T16:51:53;7.00;99.90
30381;DHT22;17169;50.966;11.038;2022-12-19T16:54:55;7.10;99.90
30381;DHT22;17169;50.966;11.038;2022-12-19T16:57:58;7.10;99.90
30381;DHT22;17169;50.966;11.038;2022-12-19T17:01:01;7.10;99.90
30381;DHT22;17169;50.966;11.038;2022-12-19T17:04:05;7.10;99.90
30381;DHT22;17169;50.966;11.038;2022-12-19T17:07:09;7.10;99.90
30381;DHT22;17169;50.966;11.038;2022-12-19T17:10:12;7.10;99.90
30381;DHT22;17169;50.966;11.038;2022-12-19T17:13:15;7.20;99.90
30381;DHT22;17169;50.966;11.038;2022-12-19T17:16:18;7.20;99.90
30381;DHT22;17169;50.966;11.038;2022-12-19T17:19:24;7.30;99.90
30381;DHT22;17169;50.966;11.038;2022-12-19T17:22:27;7.30;99.90
30381;DHT22;17169;50.966;11.038;2022-12-19T17:25:29;7.40;99.90
30381;DHT22;17169;50.966;11.038;2022-12-19T17:28:32;7.30;99.90
30381;DHT22;17169;50.966;11.038;2022-12-19T17:31:36;7.30;99.90
30381;DHT22;17169;50.966;11.038;2022-12-19T17:34:41;7.40;99.90
30381;DHT22;17169;50.966;11.038;2022-12-19T17:37:48;7.40;99.90
30381;DHT22;17169;50.966;11.038;2022-12-19T17:40:51;7.40;99.90
30381;DHT22;17169;50.966;11.038;2022-12-19T17:43:53;7.50;99.90
30381;DHT22;17169;50.966;11.038;2022-12-19T17:46:56;7.60;99.90
30381;DHT22;17169;50.966;11.038;2022-12-19T17:50:00;7.60;99.90
30381;DHT22;17169;50.966;11.038;2022-12-19T17:53:02;7.60;99.90
30381;DHT22;17169;50.966;11.038;2022-12-19T17:56:07;7.60;99.90
30381;DHT22;17169;50.966;11.038;2022-12-19T17:59:10;7.60;99.90
30381;DHT22;17169;50.966;11.038;2022-12-19T18:02:18;7.60;99.90
30381;DHT22;17169;50.966;11.038;2022-12-19T18:05:26;7.60;99.90
30381;DHT22;17169;50.966;11.038;2022-12-19T18:08:30;7.60;99.90
30381;DHT22;17169;50.966;11.038;2022-12-19T18:11:33;7.60;99.90
30381;DHT22;17169;50.966;11.038;2022-12-19T18:14:36;7.60;99.90
30381;DHT22;17169;50.966;11.038;2022-12-19T18:17:39;7.70;99.90
30381;DHT22;17169;50.966;11.038;2022-12-19T18:20:43;7.60;99.90
30381;DHT22;17169;50.966;11.038;2022-12-19T18:23:46;7.70;99.90
30381;DHT22;17169;50.966;11.038;2022-12-19T18:26:49;7.70;99.90
30381;DHT22;17169;50.966;11.038;2022-12-19T18:29:51;7.80;99.90
30381;DHT22;17169;50.966;11.038;2022-12-19T18:32:56;7.80;99.90
30381;DHT22;17169;50.966;11.038;2022-12-19T18:36:00;7.80;99.90
30381;DHT22;17169;50.966;11.038;2022-12-19T18:39:02;7.70;99.90
30381;DHT22;17169;50.966;11.038;2022-12-19T18:42:18;7.70;99.90
30381;DHT22;17169;50.966;11.038;2022-12-19T18:45:24;7.60;99.90
30381;DHT22;17169;50.966;11.038;2022-12-19T18:48:29;7.60;99.90
30381;DHT22;17169;50.966;11.038;2022-12-19T18:51:33;7.50;99.90
30381;DHT22;17169;50.966;11.038;2022-12-19T18:54:36;7.50;99.90
30381;DHT22;17169;50.966;11.038;2022-12-19T18:57:38;7.50;99.90
30381;DHT22;17169;50.966;11.038;2022-12-19T19:00:40;7.50;99.90
30381;DHT22;17169;50.966;11.038;2022-12-19T19:03:47;7.50;99.90
30381;DHT22;17169;50.966;11.038;2022-12-19T19:06:53;7.60;99.90
30381;DHT22;17169;50.966;11.038;2022-12-19T19:09:56;7.50;99.90
30381;DHT22;17169;50.966;11.038;2022-12-19T19:12:58;7.60;99.90
30381;DHT22;17169;50.966;11.038;2022-12-19T19:16:02;7.60;99.90
30381;DHT22;17169;50.966;11.038;2022-12-19T19:19:07;7.70;99.90
30381;DHT22;17169;50.966;11.038;2022-12-19T19:22:11;7.60;99.90
30381;DHT22;17169;50.966;11.038;2022-12-19T19:25:13;7.70;99.90
30381;DHT22;17169;50.966;11.038;2022-12-19T19:28:16;7.70;99.90
30381;DHT22;17169;50.966;11.038;2022-12-19T19:31:21;7.70;99.90
30381;DHT22;17169;50.966;11.038;2022-12-19T19:34:27;7.80;99.90
30381;DHT22;17169;50.966;11.038;2022-12-19T19:37:32;7.90;99.90